Time;durP1;ratioP1;P1;durP2;ratioP2;P2;SDS_P1;SDS_P2;PMS_P1;PMS_P2;Temp;Humidity;BMP_temperature;BMP_pressure;BME280_temperature;BME280_humidity;BME280_pressure;Samples;Min_cycle;Max_cycle;Signal;HPM_P1;HPM_P2
2022/09/12 00:00:43;;;;;;;49.10;25.88;;;;;;;11.54;100.00;99223.14;1750368;82;21033;-67
2022/09/12 00:03:10;;;;;;;47.60;25.43;;;;;;;11.57;100.00;99226.55;1750385;82;21600;-66
2022/09/12 00:05:44;;;;;;;40.75;24.55;;;;;;;11.60;100.00;99231.67;1750387;82;21640;-67
2022/09/12 00:08:13;;;;;;;43.85;23.52;;;;;;;11.60;100.00;99232.98;1750624;82;21093;-67
2022/09/12 00:10:42;;;;;;;58.75;28.20;;;;;;;11.57;100.00;99227.86;1750170;82;21525;-66
2022/09/12 00:13:09;;;;;;;51.48;23.90;;;;;;;11.60;100.00;99223.76;1741750;82;21572;-66
2022/09/12 00:15:40;;;;;;;58.38;28.02;;;;;;;11.61;100.00;99220.17;1720355;83;21104;-68
2022/09/12 00:18:08;;;;;;;52.50;26.23;;;;;;;11.60;100.00;99212.73;1720353;83;21052;-67
2022/09/12 00:20:42;;;;;;;45.73;27.52;;;;;;;11.61;100.00;99212.26;1720381;83;21553;-66
2022/09/12 00:23:09;;;;;;;47.08;23.65;;;;;;;11.58;100.00;99215.08;1720360;83;21099;-67
2022/09/12 00:25:46;;;;;;;43.80;25.72;;;;;;;11.57;100.00;99214.67;1720659;83;21108;-66
2022/09/12 00:28:14;;;;;;;39.33;23.95;;;;;;;11.59;100.00;99217.61;1720393;83;21092;-68
2022/09/12 00:30:43;;;;;;;44.53;24.98;;;;;;;11.61;100.00;99210.47;1720538;83;21085;-66
2022/09/12 00:33:10;;;;;;;55.20;27.90;;;;;;;11.61;100.00;99198.59;1720586;83;22033;-68
2022/09/12 00:35:46;;;;;;;42.73;24.23;;;;;;;11.63;100.00;99198.05;1720347;83;21107;-65
2022/09/12 00:38:13;;;;;;;35.30;22.58;;;;;;;11.66;100.00;99199.66;1720520;83;21095;-65
2022/09/12 00:40:40;;;;;;;33.65;21.45;;;;;;;11.69;100.00;99194.23;1720678;83;21072;-65
2022/09/12 00:43:31;;;;;;;43.08;23.62;;;;;;;11.72;100.00;99191.41;1720649;83;21096;-65
2022/09/12 00:45:57;;;;;;;49.88;28.77;;;;;;;11.73;100.00;99187.82;1720689;83;21255;-66
2022/09/12 00:48:29;;;;;;;53.02;29.82;;;;;;;11.77;100.00;99184.08;1691852;83;21095;-65
2022/09/12 00:50:56;;;;;;;72.37;31.97;;;;;;;11.79;100.00;99182.20;1720871;83;21069;-69
2022/09/12 00:53:22;;;;;;;63.52;32.03;;;;;;;11.83;100.00;99184.22;1720862;83;21229;-66
2022/09/12 00:55:49;;;;;;;58.38;30.30;;;;;;;11.82;100.00;99174.11;1752082;81;21009;-66
2022/09/12 00:58:23;;;;;;;60.30;31.62;;;;;;;11.80;100.00;99169.41;1756618;81;21138;-67
2022/09/12 01:00:50;;;;;;;51.68;28.05;;;;;;;11.83;100.00;99170.55;1755515;81;21124;-66
2022/09/12 01:03:19;;;;;;;51.85;29.42;;;;;;;11.83;100.00;99167.91;1755976;81;21086;-64
2022/09/12 01:05:57;;;;;;;42.53;25.60;;;;;;;11.86;100.00;99166.88;1755855;81;22086;-66
2022/09/12 01:08:25;;;;;;;45.63;24.55;;;;;;;11.86;100.00;99170.36;1756068;81;21006;-65
2022/09/12 01:10:52;;;;;;;42.62;24.55;;;;;;;11.87;100.00;99168.16;1755531;80;22100;-66
2022/09/12 01:13:19;;;;;;;36.03;22.35;;;;;;;11.88;100.00;99175.59;1755604;81;21107;-67
2022/09/12 01:15:45;;;;;;;38.73;24.57;;;;;;;11.88;100.00;99173.80;1755925;81;21013;-66
2022/09/12 01:18:29;;;;;;;39.85;23.98;;;;;;;11.88;100.00;99173.80;1756025;81;21127;-67
2022/09/12 01:21:15;;;;;;;49.90;30.05;;;;;;;11.86;100.00;99175.64;1755943;81;21096;-66
2022/09/12 01:23:57;;;;;;;46.35;26.40;;;;;;;11.86;100.00;99174.31;1656390;81;21185;-66
2022/09/12 01:26:44;;;;;;;51.85;29.40;;;;;;;11.85;100.00;99175.27;1755536;81;21061;-67
2022/09/12 01:29:42;;;;;;;46.35;24.63;;;;;;;11.86;100.00;99175.64;1755900;81;21115;-66
2022/09/12 01:32:40;;;;;;;38.35;21.95;;;;;;;11.86;100.00;99176.95;1756056;81;21065;-66
2022/09/12 01:35:47;;;;;;;48.48;28.10;;;;;;;11.91;100.00;99173.61;1700837;81;21071;-67
2022/09/12 01:38:22;;;;;;;46.88;26.37;;;;;;;11.91;100.00;99176.25;1755951;81;21134;-66
2022/09/12 01:41:04;;;;;;;44.18;26.85;;;;;;;11.92;100.00;99179.28;1756193;81;20990;-67
2022/09/12 01:43:41;;;;;;;48.38;27.37;;;;;;;11.91;100.00;99170.97;1756062;81;21096;-66
2022/09/12 01:46:26;;;;;;;38.05;22.98;;;;;;;11.91;100.00;99172.77;1755681;81;21036;-66
2022/09/12 01:49:00;;;;;;;49.08;28.92;;;;;;;11.90;100.00;99163.17;1755279;81;21037;-67
2022/09/12 01:51:31;;;;;;;50.80;29.90;;;;;;;11.92;100.00;99167.41;1722994;81;21146;-67
2022/09/12 01:54:06;;;;;;;47.30;27.52;;;;;;;11.94;100.00;99165.54;1752335;81;21072;-65
2022/09/12 01:56:34;;;;;;;46.48;27.73;;;;;;;11.94;100.00;99162.91;1724187;81;21035;-65
2022/09/12 01:59:05;;;;;;;54.20;33.00;;;;;;;11.98;100.00;99162.71;1752763;81;21541;-67
2022/09/12 02:01:34;;;;;;;54.08;30.12;;;;;;;12.00;100.00;99150.28;1718527;83;21069;-66
2022/09/12 02:04:12;;;;;;;61.92;33.10;;;;;;;12.02;100.00;99154.53;1722680;83;21639;-67
2022/09/12 02:06:48;;;;;;;42.78;25.62;;;;;;;12.05;100.00;99158.30;1722837;81;21112;-67
2022/09/12 02:09:23;;;;;;;52.27;30.88;;;;;;;12.07;100.00;99151.62;1722682;83;21064;-66
2022/09/12 02:11:51;;;;;;;64.10;32.03;;;;;;;12.10;100.00;99150.11;1722771;83;21092;-65
2022/09/12 02:14:25;;;;;;;56.05;33.30;;;;;;;12.16;100.00;99148.44;1722945;83;21124;-66
2022/09/12 02:16:58;;;;;;;48.20;30.40;;;;;;;12.16;100.00;99147.12;1722855;83;21769;-66
2022/09/12 02:19:29;;;;;;;50.73;31.20;;;;;;;12.18;100.00;99146.56;1722633;83;21064;-66
2022/09/12 02:21:57;;;;;;;55.55;32.13;;;;;;;12.18;100.00;99141.28;1722989;83;22172;-65
2022/09/12 02:24:29;;;;;;;50.92;28.87;;;;;;;12.20;100.00;99144.69;1694406;83;21076;-67
2022/09/12 02:27:00;;;;;;;48.68;29.92;;;;;;;12.24;100.00;99148.84;1722562;83;21064;-66
2022/09/12 02:29:27;;;;;;;47.43;29.37;;;;;;;12.27;100.00;99149.97;1701240;83;21119;-67
2022/09/12 02:32:07;;;;;;;49.88;29.02;;;;;;;12.25;100.00;99149.21;1722500;83;21073;-66
2022/09/12 02:34:48;;;;;;;53.53;33.50;;;;;;;12.27;100.00;99153.93;1723405;83;21029;-67
2022/09/12 02:37:44;;;;;;;43.98;28.62;;;;;;;12.28;100.00;99145.06;1722595;83;21088;-66
2022/09/12 02:40:10;;;;;;;49.70;31.85;;;;;;;12.29;100.00;99146.77;1722591;83;21139;-66
2022/09/12 02:42:37;;;;;;;56.50;34.83;;;;;;;12.29;100.00;99138.85;1717689;83;21143;-66
2022/09/12 02:45:05;;;;;;;47.60;30.37;;;;;;;12.32;100.00;99144.42;1722594;83;21049;-66
2022/09/12 02:47:59;;;;;;;47.78;30.15;;;;;;;12.34;100.00;99140.73;1722442;83;21244;-67
2022/09/12 02:50:26;;;;;;;47.80;29.23;;;;;;;12.34;100.00;99143.86;1718480;83;21605;-67
2022/09/12 02:52:54;;;;;;;41.28;26.70;;;;;;;12.33;100.00;99145.66;1712836;83;21029;-66
2022/09/12 02:55:23;;;;;;;43.83;26.95;;;;;;;12.35;100.00;99146.41;1708673;83;21875;-65
2022/09/12 02:57:49;;;;;;;37.00;25.08;;;;;;;12.32;100.00;99147.90;1706868;84;21113;-66
2022/09/12 03:00:16;;;;;;;41.68;25.20;;;;;;;12.31;100.00;99154.14;1707870;82;21078;-67
2022/09/12 03:02:57;;;;;;;27.77;19.67;;;;;;;12.32;100.00;99149.22;1712878;83;21048;-66
2022/09/12 03:05:40;;;;;;;49.45;31.25;;;;;;;12.34;100.00;99151.30;1712365;82;21089;-66
2022/09/12 03:08:27;;;;;;;47.65;30.43;;;;;;;12.37;100.00;99155.06;1630119;87;21226;-67
2022/09/12 03:11:20;;;;;;;48.98;31.73;;;;;;;12.34;100.00;99153.94;1712359;82;21057;-67
2022/09/12 03:14:01;;;;;;;45.33;28.98;;;;;;;12.37;100.00;99158.19;1712788;83;21045;-65
2022/09/12 03:16:52;;;;;;;36.68;25.23;;;;;;;12.37;100.00;99160.34;1712733;83;21081;-67
2022/09/12 03:19:38;;;;;;;35.85;24.65;;;;;;;12.39;100.00;99158.47;1712614;83;21061;-66
2022/09/12 03:22:25;;;;;;;43.83;29.48;;;;;;;12.43;100.00;99160.95;1713224;83;21636;-66
2022/09/12 03:25:07;;;;;;;44.33;28.75;;;;;;;12.43;100.00;99155.19;1712614;83;21077;-68
2022/09/12 03:27:59;;;;;;;40.67;28.85;;;;;;;12.41;100.00;99154.91;1712997;83;22117;-67
2022/09/12 03:30:26;;;;;;;37.90;23.27;;;;;;;12.45;100.00;99159.06;1712922;83;21057;-66
2022/09/12 03:32:53;;;;;;;35.90;23.07;;;;;;;12.45;100.00;99159.06;1713111;83;21085;-68
2022/09/12 03:35:22;;;;;;;27.52;22.10;;;;;;;12.45;100.00;99163.03;1712921;83;21968;-67
2022/09/12 03:37:48;;;;;;;32.60;23.05;;;;;;;12.45;100.00;99159.06;1712923;83;21553;-68
2022/09/12 03:40:15;;;;;;;26.75;18.73;;;;;;;12.45;100.00;99159.06;1712882;83;21057;-69
2022/09/12 03:42:42;;;;;;;28.25;18.27;;;;;;;12.48;100.00;99158.88;1713049;83;21077;-66
2022/09/12 03:45:09;;;;;;;37.98;25.88;;;;;;;12.45;100.00;99155.11;1713099;83;21109;-66
2022/09/12 03:47:36;;;;;;;33.90;25.45;;;;;;;12.45;100.00;99157.75;1712684;83;21227;-67
2022/09/12 03:50:05;;;;;;;38.08;25.68;;;;;;;12.49;100.00;99160.55;1712692;83;21092;-68
2022/09/12 03:52:32;;;;;;;42.55;27.27;;;;;;;12.51;100.00;99162.63;1712896;83;21061;-68
2022/09/12 03:54:58;;;;;;;38.53;26.77;;;;;;;12.54;100.00;99163.80;1728462;82;21004;-67
2022/09/12 03:57:24;;;;;;;34.10;24.43;;;;;;;12.53;100.00;99162.08;1742777;82;22221;-67
2022/09/12 03:59:51;;;;;;;42.70;27.40;;;;;;;12.54;100.00;99171.72;1742344;82;21255;-68
2022/09/12 04:02:17;;;;;;;35.03;24.87;;;;;;;12.54;100.00;99163.80;1742259;82;20967;-67
2022/09/12 04:04:47;;;;;;;34.33;24.92;;;;;;;12.56;100.00;99168.48;1742255;82;21580;-68
2022/09/12 04:07:12;;;;;;;35.60;23.90;;;;;;;12.54;100.00;99167.75;1742095;82;21067;-70
2022/09/12 04:09:40;;;;;;;40.20;27.00;;;;;;;12.56;100.00;99175.09;1742278;82;21016;-67
2022/09/12 04:12:06;;;;;;;35.03;23.10;;;;;;;12.56;100.00;99171.13;1742427;82;21461;-68
2022/09/12 04:14:33;;;;;;;36.42;23.85;;;;;;;12.61;100.00;99166.44;1742422;82;21005;-68
2022/09/12 04:17:00;;;;;;;28.92;19.95;;;;;;;12.60;100.00;99173.97;1742351;82;21051;-67
2022/09/12 04:19:27;;;;;;;29.18;19.35;;;;;;;12.60;100.00;99175.28;1742481;82;21541;-66
2022/09/12 04:21:53;;;;;;;28.07;20.05;;;;;;;12.59;100.00;99174.92;1742855;82;21080;-68
2022/09/12 04:24:20;;;;;;;21.85;15.98;;;;;;;12.58;100.00;99177.16;1742732;82;21170;-67
2022/09/12 04:26:46;;;;;;;22.82;16.07;;;;;;;12.59;100.00;99178.41;1742425;82;21044;-67
2022/09/12 04:29:14;;;;;;;20.12;13.93;;;;;;;12.62;100.00;99177.37;1742973;82;21095;-68
2022/09/12 04:31:40;;;;;;;19.40;13.48;;;;;;;12.62;100.00;99174.73;1742452;82;21084;-68
2022/09/12 04:34:08;;;;;;;22.30;14.60;;;;;;;12.62;100.00;99182.65;1742493;82;21020;-67
2022/09/12 04:36:35;;;;;;;23.07;15.88;;;;;;;12.64;100.00;99180.77;1742534;82;21275;-67
2022/09/12 04:39:02;;;;;;;24.70;16.05;;;;;;;12.66;100.00;99179.36;1721323;82;21000;-68
2022/09/12 04:41:35;;;;;;;15.90;10.25;;;;;;;12.65;100.00;99189.05;1742608;82;21592;-69
2022/09/12 04:44:07;;;;;;;9.43;7.08;;;;;;;12.67;100.00;99196.42;1742904;82;21016;-68
2022/09/12 04:46:37;;;;;;;6.28;3.72;;;;;;;12.55;100.00;99201.97;1742616;82;21028;-68
2022/09/12 04:49:04;;;;;;;3.95;2.98;;;;;;;12.38;100.00;99200.83;1742888;82;21213;-67
2022/09/12 04:51:34;;;;;;;3.27;2.60;;;;;;;12.24;100.00;99212.20;1750137;81;21071;-68
2022/09/12 04:54:05;;;;;;;4.72;2.27;;;;;;;12.12;100.00;99214.21;1755918;81;21016;-66
2022/09/12 04:56:39;;;;;;;2.60;1.60;;;;;;;12.04;100.00;99209.86;1756091;81;21032;-68
2022/09/12 04:59:05;;;;;;;1.92;1.60;;;;;;;11.88;100.00;99216.01;1756138;81;21009;-67
2022/09/12 05:01:32;;;;;;;3.15;2.27;;;;;;;11.71;100.00;99216.94;1756064;81;21236;-66
2022/09/12 05:03:58;;;;;;;2.40;1.37;;;;;;;11.64;100.00;99222.63;1755689;81;21017;-68
2022/09/12 05:06:29;;;;;;;2.17;1.50;;;;;;;11.59;100.00;99219.40;1756091;80;21611;-66
2022/09/12 05:08:57;;;;;;;2.98;1.52;;;;;;;11.54;100.00;99220.50;1756017;81;21136;-67
2022/09/12 05:11:29;;;;;;;4.40;1.65;;;;;;;11.47;100.00;99220.46;1756213;81;21139;-69
2022/09/12 05:13:57;;;;;;;1.65;1.40;;;;;;;11.44;100.00;99227.23;1755365;81;21797;-67
2022/09/12 05:16:26;;;;;;;0.93;0.90;;;;;;;11.40;100.00;99221.73;1755954;81;21068;-67
2022/09/12 05:18:52;;;;;;;0.78;0.78;;;;;;;11.42;100.00;99226.45;1755708;81;22067;-68
2022/09/12 05:21:21;;;;;;;1.32;1.07;;;;;;;11.42;100.00;99225.14;1756037;81;21045;-67
2022/09/12 05:23:54;;;;;;;2.65;0.78;;;;;;;11.43;100.00;99226.83;1756001;81;21043;-67
2022/09/12 05:26:21;;;;;;;4.33;1.27;;;;;;;11.42;100.00;99233.53;1755699;81;21890;-67
2022/09/12 05:28:49;;;;;;;1.67;1.07;;;;;;;11.40;100.00;99231.44;1756001;81;21084;-69
2022/09/12 05:31:23;;;;;;;1.77;1.07;;;;;;;11.40;100.00;99228.33;1755861;81;21028;-67
2022/09/12 05:33:51;;;;;;;2.08;1.02;;;;;;;11.40;100.00;99220.89;1756081;81;21017;-69
2022/09/12 05:36:28;;;;;;;1.22;1.10;;;;;;;11.40;100.00;99209.88;1755897;81;21065;-68
2022/09/12 05:38:55;;;;;;;6.47;3.92;;;;;;;11.43;100.00;99212.33;1755722;81;21922;-68
2022/09/12 05:41:25;;;;;;;3.05;1.62;;;;;;;11.45;100.00;99218.84;1755734;81;21089;-68
2022/09/12 05:43:54;;;;;;;3.60;2.70;;;;;;;11.48;100.00;99222.63;1754732;81;21033;-68
2022/09/12 05:46:24;;;;;;;1.67;1.07;;;;;;;11.51;100.00;99215.41;1755744;81;21109;-68
2022/09/12 05:48:51;;;;;;;3.10;1.97;;;;;;;11.54;100.00;99215.23;1756235;81;21060;-68
2022/09/12 05:51:20;;;;;;;2.02;1.45;;;;;;;11.58;100.00;99207.16;1751966;81;21123;-68
2022/09/12 05:53:52;;;;;;;1.15;1.02;;;;;;;11.60;100.00;99213.20;1742341;82;21077;-68
2022/09/12 05:56:26;;;;;;;2.92;1.12;;;;;;;11.64;100.00;99215.59;1742673;82;21049;-69
2022/09/12 05:58:54;;;;;;;1.07;0.93;;;;;;;11.67;100.00;99214.56;1741492;82;21029;-67
2022/09/12 06:01:21;;;;;;;1.10;1.00;;;;;;;11.71;100.00;99214.75;1743044;82;21506;-68
2022/09/12 06:03:50;;;;;;;3.52;1.20;;;;;;;11.74;100.00;99215.92;1742600;82;21902;-68
2022/09/12 06:06:19;;;;;;;2.22;0.98;;;;;;;11.77;100.00;99215.73;1742663;80;21024;-69
2022/09/12 06:08:49;;;;;;;4.08;1.07;;;;;;;11.81;100.00;99211.98;1742647;82;21008;-68
2022/09/12 06:11:21;;;;;;;1.25;1.10;;;;;;;11.86;100.00;99216.53;1742620;82;21010;-69
2022/09/12 06:13:52;;;;;;;3.58;2.00;;;;;;;11.91;100.00;99208.39;1742717;82;21021;-69
2022/09/12 06:16:21;;;;;;;2.50;1.67;;;;;;;11.94;100.00;99209.55;1742692;82;21164;-70
2022/09/12 06:18:53;;;;;;;3.02;1.50;;;;;;;11.94;100.00;99207.75;1742791;82;21108;-68
2022/09/12 06:21:20;;;;;;;2.62;2.05;;;;;;;11.96;100.00;99213.80;1742700;82;21057;-68
2022/09/12 06:23:47;;;;;;;3.90;2.08;;;;;;;11.98;100.00;99220.76;1742531;82;20969;-67
2022/09/12 06:26:16;;;;;;;1.92;1.50;;;;;;;11.96;100.00;99219.08;1742617;82;21080;-68
2022/09/12 06:28:44;;;;;;;4.95;1.35;;;;;;;12.00;100.00;99220.20;1742701;82;21105;-67
2022/09/12 06:31:14;;;;;;;4.08;1.05;;;;;;;12.03;100.00;99223.98;1742452;82;21506;-68
2022/09/12 06:33:44;;;;;;;2.98;0.98;;;;;;;12.09;100.00;99227.59;1742536;82;21214;-68
2022/09/12 06:36:14;;;;;;;2.15;1.20;;;;;;;12.15;100.00;99225.93;1742806;82;21064;-68
2022/09/12 06:38:41;;;;;;;1.33;1.00;;;;;;;12.19;100.00;99231.39;1742668;82;20996;-67
2022/09/12 06:41:11;;;;;;;0.88;0.88;;;;;;;12.20;100.00;99230.95;1742613;82;21299;-68
2022/09/12 06:43:38;;;;;;;1.82;0.90;;;;;;;12.21;100.00;99229.52;1742201;82;20942;-68
2022/09/12 06:46:06;;;;;;;1.87;1.15;;;;;;;12.22;100.00;99232.55;1742692;82;21517;-67
2022/09/12 06:48:33;;;;;;;2.00;1.15;;;;;;;12.26;100.00;99234.08;1742541;82;21033;-68
2022/09/12 06:51:08;;;;;;;1.70;1.60;;;;;;;12.30;100.00;99234.73;1742441;82;21580;-70
2022/09/12 06:53:35;;;;;;;1.45;1.20;;;;;;;12.32;100.00;99238.14;1742519;82;21360;-66
2022/09/12 06:56:11;;;;;;;2.22;1.12;;;;;;;12.35;100.00;99248.52;1708381;82;21082;-68
2022/09/12 06:58:37;;;;;;;3.95;1.95;;;;;;;12.36;100.00;99248.43;1706703;84;22236;-68
2022/09/12 07:01:19;;;;;;;3.45;1.80;;;;;;;12.39;100.00;99240.32;1706899;84;21619;-68
2022/09/12 07:03:56;;;;;;;1.55;1.10;;;;;;;12.43;100.00;99239.69;1707159;84;21130;-68
2022/09/12 07:06:28;;;;;;;1.52;1.07;;;;;;;12.49;100.00;99239.78;1706952;82;21279;-68
2022/09/12 07:08:53;;;;;;;;;;;;;;;12.57;100.00;99238.87;1708898;84;21122;-67
2022/09/12 07:11:22;;;;;;;3.02;1.42;;;;;;;12.61;100.00;99241.72;1706886;84;20209;-67
2022/09/12 07:13:52;;;;;;;1.75;1.35;;;;;;;12.65;100.00;99246.33;1706552;84;21627;-68
2022/09/12 07:16:19;;;;;;;1.92;1.10;;;;;;;12.70;100.00;99245.13;1707118;84;21048;-67
2022/09/12 07:18:53;;;;;;;3.05;1.30;;;;;;;12.75;100.00;99241.73;1732482;82;21225;-65
2022/09/12 07:21:19;;;;;;;2.33;1.45;;;;;;;12.79;100.00;99237.97;1742666;82;21617;-69
2022/09/12 07:23:46;;;;;;;2.72;1.40;;;;;;;12.87;100.00;99237.97;1742303;82;21085;-69
2022/09/12 07:26:14;;;;;;;3.72;2.25;;;;;;;12.89;100.00;99240.05;1742690;82;21644;-68
2022/09/12 07:28:41;;;;;;;1.82;1.40;;;;;;;12.97;100.00;99243.91;1742415;82;21076;-68
2022/09/12 07:31:16;;;;;;;3.05;2.10;;;;;;;13.06;100.00;99235.05;1742906;82;21190;-67
2022/09/12 07:33:42;;;;;;;3.25;2.02;;;;;;;13.12;100.00;99238.64;1742492;82;21049;-66
2022/09/12 07:36:15;;;;;;;5.55;1.55;;;;;;;13.17;100.00;99240.05;1742589;82;20990;-68
2022/09/12 07:38:43;;;;;;;3.00;1.45;;;;;;;13.18;100.00;99240.89;1741749;82;21089;-67
2022/09/12 07:41:16;;;;;;;1.90;1.70;;;;;;;13.15;100.00;99241.09;1742526;82;21064;-68
2022/09/12 07:43:42;;;;;;;2.05;1.57;;;;;;;13.18;100.00;99243.09;1742349;82;21106;-68
2022/09/12 07:46:09;;;;;;;2.80;1.50;;;;;;;13.27;100.00;99242.12;1742624;82;21053;-68
2022/09/12 07:48:38;;;;;;;2.33;1.80;;;;;;;13.41;100.00;99236.84;1742477;82;21121;-67
2022/09/12 07:51:06;;;;;;;3.27;1.67;;;;;;;13.56;100.00;99242.98;1742373;82;21080;-68
2022/09/12 07:53:38;;;;;;;3.50;2.07;;;;;;;13.69;100.00;99243.91;1742757;80;21041;-68
2022/09/12 07:56:05;;;;;;;2.12;1.67;;;;;;;13.77;100.00;99240.27;1707128;82;21872;-67
2022/09/12 07:58:33;;;;;;;2.30;1.80;;;;;;;13.81;100.00;99243.59;1706736;84;21055;-68
2022/09/12 08:01:16;;;;;;;2.60;1.85;;;;;;;13.83;100.00;99240.37;1707032;84;21518;-68
2022/09/12 08:03:46;;;;;;;2.72;2.33;;;;;;;13.83;100.00;99241.69;1706946;83;21061;-67
2022/09/12 08:06:22;;;;;;;4.45;2.22;;;;;;;13.83;100.00;99235.08;1706930;82;21089;-68
2022/09/12 08:08:50;;;;;;;2.70;2.10;;;;;;;13.81;100.00;99236.97;1707169;83;21107;-67
2022/09/12 08:11:18;;;;;;;2.25;1.90;;;;;;;13.75;100.00;99242.64;1706784;84;21049;-67
2022/09/12 08:13:46;;;;;;;2.92;1.60;;;;;;;13.71;100.00;99242.46;1707095;84;21589;-68
2022/09/12 08:16:20;;;;;;;2.75;2.12;;;;;;;13.63;100.00;99241.64;1707066;84;21757;-66
2022/09/12 08:18:47;;;;;;;2.30;1.72;;;;;;;13.57;100.00;99245.53;1706870;84;21109;-68
2022/09/12 08:21:18;;;;;;;3.67;1.90;;;;;;;13.55;100.00;99251.39;1706892;83;21235;-68
2022/09/12 08:23:45;;;;;;;2.83;2.20;;;;;;;13.58;100.00;99252.52;1706708;83;21613;-67
2022/09/12 08:26:12;;;;;;;3.47;2.25;;;;;;;13.58;100.00;99256.48;1706922;83;21609;-68
2022/09/12 08:28:39;;;;;;;3.60;1.70;;;;;;;13.57;100.00;99256.12;1707113;84;21045;-69
2022/09/12 08:31:09;;;;;;;5.05;2.00;;;;;;;13.57;100.00;99250.83;1731415;82;21625;-68
2022/09/12 08:33:39;;;;;;;3.10;2.10;;;;;;;13.57;100.00;99255.24;1742839;82;21509;-67
2022/09/12 08:36:21;;;;;;;2.65;2.00;;;;;;;13.54;100.00;99253.64;1742602;82;20998;-68
2022/09/12 08:38:52;;;;;;;2.85;2.02;;;;;;;13.49;100.00;99254.41;1742456;82;21014;-68
2022/09/12 08:41:39;;;;;;;2.92;2.25;;;;;;;13.42;100.00;99247.81;1742506;82;21046;-67
2022/09/12 08:44:46;;;;;;;1.90;1.70;;;;;;;13.40;100.00;99249.22;1742722;82;21097;-67
2022/09/12 08:47:30;;;;;;;4.62;1.90;;;;;;;13.40;100.00;99246.58;1742919;82;21808;-67
2022/09/12 08:50:14;;;;;;;2.92;1.92;;;;;;;13.41;100.00;99247.42;1721742;82;21612;-67
2022/09/12 08:53:13;;;;;;;3.83;2.00;;;;;;;13.45;100.00;99241.48;1746372;82;21029;-68
2022/09/12 08:55:52;;;;;;;7.75;2.67;;;;;;;13.52;100.00;99235.70;1721985;82;21069;-67
2022/09/12 08:58:21;;;;;;;2.95;1.80;;;;;;;13.66;100.00;99228.69;1709079;83;21641;-68
2022/09/12 09:01:02;;;;;;;2.87;1.65;;;;;;;13.78;100.00;99231.41;1715066;83;22195;-68
2022/09/12 09:04:26;;;;;;;2.05;1.70;;;;;;;13.91;100.00;99228.80;1715425;83;21596;-68
2022/09/12 09:07:15;;;;;;;9.08;3.55;;;;;;;14.11;100.00;99230.14;1714965;83;21632;-68
2022/09/12 09:10:06;;;;;;;10.08;4.72;;;;;;;14.32;100.00;99228.34;1715020;83;21550;-69
2022/09/12 09:13:08;;;;;;;10.60;3.77;;;;;;;14.31;100.00;99227.51;1714809;83;21018;-67
2022/09/12 09:15:48;;;;;;;13.30;4.15;;;;;;;14.37;100.00;99237.67;1714998;83;21735;-68
2022/09/12 09:18:22;;;;;;;5.08;2.10;;;;;;;14.44;100.00;99233.66;1714984;83;21064;-69
2022/09/12 09:20:55;;;;;;;8.25;1.90;;;;;;;14.52;100.00;99233.64;1715024;83;21048;-67
2022/09/12 09:23:42;;;;;;;6.33;2.10;;;;;;;14.62;100.00;99233.41;1710109;83;21310;-68
2022/09/12 09:26:25;;;;;;;5.87;2.02;;;;;;;14.72;100.00;99238.44;1714719;83;21064;-69
2022/09/12 09:28:54;;;;;;;6.08;2.47;;;;;;;14.79;100.00;99239.75;1714660;83;21139;-69
2022/09/12 09:31:23;;;;;;;6.53;3.00;;;;;;;14.92;100.00;99244.19;1715068;83;21053;-68
2022/09/12 09:33:53;;;;;;;6.62;2.52;;;;;;;15.10;100.00;99237.13;1714716;83;21087;-68
2022/09/12 09:36:43;;;;;;;5.33;2.72;;;;;;;15.20;100.00;99241.30;1715360;83;21069;-68
2022/09/12 09:39:28;;;;;;;7.10;3.05;;;;;;;15.37;100.00;99239.25;1715018;83;21076;-68
2022/09/12 09:42:49;;;;;;;6.10;2.80;;;;;;;15.67;100.00;99237.56;1713928;83;21094;-70
2022/09/12 09:45:17;;;;;;;7.60;3.00;;;;;;;15.94;100.00;99229.41;1714656;83;21033;-68
2022/09/12 09:48:01;;;;;;;4.00;2.50;;;;;;;16.30;96.15;99232.95;1715270;83;21119;-68
2022/09/12 09:50:28;;;;;;;7.20;3.02;;;;;;;16.44;97.09;99228.77;1712887;83;21033;-70
2022/09/12 09:52:55;;;;;;;6.12;3.00;;;;;;;16.69;95.27;99237.06;1711880;83;21078;-67
2022/09/12 09:55:26;;;;;;;8.20;2.90;;;;;;;16.76;94.29;99232.96;1730942;82;21175;-69
2022/09/12 09:57:52;;;;;;;4.28;2.62;;;;;;;16.89;94.96;99234.23;1742699;82;21506;-68
2022/09/12 10:00:30;;;;;;;6.05;2.85;;;;;;;16.96;92.87;99239.44;1742792;82;22125;-68
2022/09/12 10:03:12;;;;;;;5.08;2.52;;;;;;;16.98;92.61;99238.84;1742826;82;21116;-68
2022/09/12 10:05:49;;;;;;;6.65;2.58;;;;;;;16.99;91.71;99239.19;1742463;80;21184;-69
2022/09/12 10:08:31;;;;;;;6.12;2.80;;;;;;;16.94;91.69;99238.71;1742836;82;21756;-69
2022/09/12 10:11:05;;;;;;;14.03;3.15;;;;;;;16.87;92.01;99243.30;1742417;82;21046;-67
2022/09/12 10:13:56;;;;;;;4.87;3.05;;;;;;;16.84;92.55;99242.19;1742804;82;21077;-68
2022/09/12 10:16:32;;;;;;;6.03;3.10;;;;;;;16.82;92.65;99246.77;1742569;82;21033;-68
2022/09/12 10:19:01;;;;;;;5.90;2.50;;;;;;;16.78;92.62;99240.34;1739611;82;21041;-68
2022/09/12 10:21:48;;;;;;;7.30;3.15;;;;;;;16.78;92.43;99242.16;1742650;82;21118;-68
2022/09/12 10:24:21;;;;;;;4.75;2.67;;;;;;;16.79;93.12;99237.22;1742971;82;21062;-69
2022/09/12 10:27:06;;;;;;;6.45;2.40;;;;;;;16.81;92.62;99234.45;1742440;82;21029;-69
2022/09/12 10:29:35;;;;;;;4.15;2.52;;;;;;;16.83;92.31;99243.17;1742726;82;21049;-68
2022/09/12 10:32:07;;;;;;;6.75;2.67;;;;;;;16.90;91.80;99241.23;1742901;82;20997;-68
2022/09/12 10:34:38;;;;;;;5.45;2.00;;;;;;;16.99;91.95;99242.34;1742913;82;21107;-68
2022/09/12 10:37:12;;;;;;;5.10;2.50;;;;;;;17.08;90.87;99242.11;1742710;82;21034;-69
2022/09/12 10:39:38;;;;;;;2.90;2.12;;;;;;;17.10;88.62;99236.20;1741554;82;21017;-68
2022/09/12 10:42:05;;;;;;;4.45;2.30;;;;;;;17.11;88.33;99234.72;1742467;82;21143;-68
2022/09/12 10:44:34;;;;;;;4.00;2.05;;;;;;;17.16;88.67;99230.38;1742591;82;21093;-68
2022/09/12 10:47:23;;;;;;;6.08;2.33;;;;;;;17.23;88.92;99232.94;1742422;82;21135;-68
2022/09/12 10:49:50;;;;;;;3.15;1.85;;;;;;;17.27;88.23;99243.68;1741368;82;21387;-67
2022/09/12 10:52:22;;;;;;;3.90;2.02;;;;;;;17.18;89.03;99241.28;1742445;82;21017;-68
2022/09/12 10:54:52;;;;;;;4.25;2.12;;;;;;;17.08;88.84;99247.44;1742503;82;21065;-68
2022/09/12 10:57:32;;;;;;;;;;;;;;;16.90;88.80;99245.72;1745215;82;21037;-68
2022/09/12 11:00:16;;;;;;;3.83;1.70;;;;;;;16.73;89.50;99248.32;1742477;82;21138;-67
2022/09/12 11:03:19;;;;;;;5.12;2.15;;;;;;;16.58;90.19;99246.33;1741320;82;20997;-68
2022/09/12 11:05:59;;;;;;;2.47;2.00;;;;;;;16.47;90.72;99252.94;1742611;81;21017;-68
2022/09/12 11:08:49;;;;;;;5.47;2.22;;;;;;;16.33;91.73;99250.86;1742730;82;21021;-66
2022/09/12 11:11:39;;;;;;;3.70;2.20;;;;;;;16.31;92.91;99253.23;1690627;82;21002;-68
2022/09/12 11:14:20;;;;;;;5.65;2.12;;;;;;;16.31;93.46;99250.58;1742805;82;22145;-69
2022/09/12 11:17:08;;;;;;;7.28;2.10;;;;;;;16.24;95.07;99251.55;1742344;82;21016;-67
2022/09/12 11:19:50;;;;;;;3.67;2.00;;;;;;;16.20;97.16;99250.56;1737133;82;21025;-66
2022/09/12 11:22:32;;;;;;;;;;;;;;;16.19;97.67;99251.50;1745045;82;21494;-68
2022/09/12 11:25:07;;;;;;;10.03;6.35;;;;;;;16.15;97.88;99255.73;1742795;82;20195;-68
2022/09/12 11:28:04;;;;;;;7.50;5.00;;;;;;;16.10;98.27;99260.54;1741728;82;21816;-66
2022/09/12 11:30:59;;;;;;;7.20;3.00;;;;;;;16.07;97.89;99256.77;1742490;82;21030;-68
2022/09/12 11:33:42;;;;;;;3.67;2.00;;;;;;;16.03;98.49;99261.92;1742394;82;21064;-68
2022/09/12 11:36:17;;;;;;;3.45;1.80;;;;;;;15.97;99.08;99251.77;1741896;82;21068;-68
2022/09/12 11:39:04;;;;;;;5.50;1.90;;;;;;;15.91;98.16;99256.19;1726856;82;20993;-69
2022/09/12 11:41:36;;;;;;;2.42;1.70;;;;;;;15.82;98.86;99259.03;1741950;82;21563;-68
2022/09/12 11:44:27;;;;;;;3.58;2.10;;;;;;;15.74;98.66;99260.08;1741821;82;21635;-68
2022/09/12 11:46:54;;;;;;;3.65;2.20;;;;;;;15.71;98.28;99265.14;1742315;82;21048;-68
2022/09/12 11:49:41;;;;;;;5.17;2.30;;;;;;;15.64;99.12;99265.15;1742383;82;21103;-69
2022/09/12 11:52:19;;;;;;;5.78;3.52;;;;;;;15.59;98.77;99266.45;1742528;82;21013;-69